高雄國際航空站 - 塔台/地面席

METAR RCKH 161800Z 01004KT 4500 -RA FEW010 BKN025 BKN050 20/18 Q1010 NOSIG RMK A2983=

站台狀態:Offline
最後更新:2022-05-17 02:30:02